Tour Pomerol — 9V9183 — position and weather

sailwx.info

Track history (hours):
 
Tides and Currents Weather Stations Pressure Air Temp Water Temp Dewpoint Dewpoint Depression Visibility Wind Speed Wind Dir Waves Ship Positions

Tour Pomerol

Last reported at 2014-Oct-21 07:33 UTC. Time now 2014-Oct-23 09:33 UTC.
Position N 34°44' W 007°42'.

Length 120 m; draft 6.8 m.

Type: Tanker. MMSI: 563384980.

Date/timePositionNaut miles runAvg speedWind from/ knotsBaromVisibWave heightAir tempDewpointWater temp
2014-Oct-21 07:33N 34°44' W 007°42'9413.0
2014-Oct-21 00:21N 35°50' W 006°21'3813.0
2014-Oct-20 21:25N 35°58' W 005°35'1110.9
2014-Oct-20 20:27N 36°03' W 005°24'7 7.0
2014-Oct-20 19:27N 36°10' W 005°24'0 0.0
2014-Oct-20 12:12N 36°11' W 005°24'0 0.0
2014-Oct-20 07:33N 36°11' W 005°24'0 0.0
2014-Oct-20 06:30N 36°11' W 005°24'0 0.0
2014-Oct-20 05:33N 36°11' W 005°24'0 0.0
2014-Oct-20 02:33N 36°11' W 005°24'0 0.0
2014-Oct-20 01:22N 36°11' W 005°24'0 0.0
2014-Oct-20 00:31N 36°11' W 005°24'3 2.8
2014-Oct-19 23:33N 36°08' W 005°24'6 5.5
2014-Oct-19 22:33N 36°06' W 005°17'21512.4
2014-Oct-19 05:11N 37°14' W 001°03'813.4
2014-Oct-19 04:33N 37°20' W 000°54'1413.7
2014-Oct-19 03:33N 37°29' W 000°41'1313.5
2014-Oct-19 02:33N 37°38' W 000°30'1413.6
2014-Oct-19 01:33N 37°50' W 000°21'1312.9
2014-Oct-19 00:33N 38°01' W 000°12'1313.3
2014-Oct-18 23:33N 38°12' W 000°03'1313.4
2014-Oct-18 22:33N 38°23' E 000°06'1513.5
2014-Oct-18 21:28N 38°36' E 000°16'1213.2
2014-Oct-18 20:33N 38°46' E 000°25'1313.1
2014-Oct-18 19:32N 38°56' E 000°36'1313.2
2014-Oct-18 18:32N 39°07' E 000°46'1313.1
2014-Oct-18 17:33N 39°17' E 000°56'1313.1
2014-Oct-18 16:31N 39°28' E 001°07'1413.3
2014-Oct-18 15:29N 39°38' E 001°18'1313.4
2014-Oct-18 14:33N 39°48' E 001°28'1313.6
2014-Oct-18 13:33N 39°59' E 001°38'1313.4
2014-Oct-18 12:33N 40°10' E 001°49'1313.1
2014-Oct-18 11:33N 40°20' E 001°59'1313.0
2014-Oct-18 10:33N 40°30' E 002°10'1312.8
2014-Oct-18 09:30N 40°41' E 002°20'1514.7
2014-Oct-18 08:30N 40°53' E 002°32'1212.2
2014-Oct-18 07:33N 41°02' E 002°41'1413.5
2014-Oct-18 06:31N 41°13' E 002°52'1313.2
2014-Oct-18 05:33N 41°23' E 003°03'1313.3
2014-Oct-18 04:33N 41°34' E 003°14'1413.5
2014-Oct-18 03:33N 41°45' E 003°24'1413.7
2014-Oct-18 02:33N 41°55' E 003°36'2813.5
2014-Oct-18 00:28N 42°17' E 003°60'1413.7
2014-Oct-17 23:29N 42°28' E 004°12'1313.5
2014-Oct-17 22:30N 42°38' E 004°23'1515.7
2014-Oct-17 21:33N 42°49' E 004°36'1111.5
2014-Oct-17 20:33N 42°58' E 004°46'1413.6
2014-Oct-17 19:33N 43°09' E 004°57'1212.4
2014-Oct-17 18:33N 43°21' E 004°58'3 2.8
2014-Oct-17 17:31N 43°24' E 004°60'0 0.0
2014-Oct-17 16:31N 43°24' E 004°60'0 0.0
2014-Oct-17 15:31N 43°24' E 004°60'0 0.0
2014-Oct-17 14:31N 43°24' E 004°60'0 0.0
2014-Oct-17 13:31N 43°24' E 004°60'0 0.0
2014-Oct-17 12:31N 43°24' E 004°60'0 0.0
2014-Oct-17 11:31N 43°24' E 004°60'0 0.0
2014-Oct-17 10:31N 43°24' E 004°60'0 0.0
2014-Oct-17 09:31N 43°24' E 004°60'0 0.0
2014-Oct-17 08:31N 43°24' E 004°60'0 0.0
2014-Oct-17 07:31N 43°24' E 004°60'0 0.0
2014-Oct-17 06:31N 43°24' E 004°60'0 0.0
2014-Oct-17 05:31N 43°24' E 004°60'0 0.0
2014-Oct-17 04:31N 43°24' E 004°60'0 0.0
2014-Oct-17 03:31N 43°24' E 004°60'0 0.0
2014-Oct-17 02:33N 43°24' E 004°60'0 0.0
2014-Oct-17 01:33N 43°24' E 004°60'0 0.0
2014-Oct-17 00:34N 43°24' E 004°60'0 0.0
2014-Oct-16 23:33N 43°24' E 004°60'0 0.0
2014-Oct-16 22:33N 43°24' E 004°60'0 0.0
2014-Oct-16 21:33N 43°24' E 004°60'0 0.0
2014-Oct-16 20:33N 43°24' E 004°60'0 0.0
2014-Oct-16 19:33N 43°24' E 004°60'0 0.0
2014-Oct-16 18:34N 43°24' E 004°60'0 0.0
2014-Oct-16 17:33N 43°24' E 004°60'0 0.0
2014-Oct-16 16:33N 43°24' E 004°60'0 0.0
2014-Oct-16 15:33N 43°24' E 004°60'0 0.0
2014-Oct-16 14:33N 43°24' E 004°60'0 0.0
2014-Oct-16 13:33N 43°24' E 004°60'0 0.0
2014-Oct-16 12:33N 43°24' E 004°60'0 0.0
2014-Oct-16 11:33N 43°24' E 004°60'0 0.0
2014-Oct-16 10:33N 43°24' E 004°60'0 0.0
2014-Oct-16 09:33N 43°24' E 004°60'0 0.0
2014-Oct-16 08:33N 43°24' E 004°60'0 0.0
2014-Oct-16 07:33N 43°24' E 004°60'0 0.0
2014-Oct-16 06:33N 43°24' E 004°60'0 0.0
2014-Oct-16 05:33N 43°24' E 004°60'0 0.0
2014-Oct-16 04:33N 43°24' E 004°60'0 0.0
2014-Oct-16 03:33N 43°24' E 004°60'3 3.2
2014-Oct-16 02:33N 43°21' E 004°58'7812.1
2014-Oct-15 20:06N 42°13' E 004°06'2211.9
2014-Oct-15 18:18N 41°56' E 003°48'1213.2
2014-Oct-15 17:22N 41°46' E 003°38'1112.5
2014-Oct-15 16:29N 41°38' E 003°29'1312.8
2014-Oct-15 15:30N 41°28' E 003°19'1312.8
2014-Oct-15 14:31N 41°18' E 003°09'1212.8
2014-Oct-15 13:33N 41°08' E 002°59'1312.9
2014-Oct-15 12:33N 40°57' E 002°49'1313.1
2014-Oct-15 11:33N 40°47' E 002°39'9 9.2
2014-Oct-15 10:34N 40°40' E 002°31'1313.1
2014-Oct-15 09:33N 40°29' E 002°20'1313.1
2014-Oct-15 08:33N 40°19' E 002°10'1313.4
2014-Oct-15 07:34N 40°08' E 001°59'1413.5
2014-Oct-15 06:33N 39°57' E 001°49'3 3.4
2014-Oct-15 05:33N 39°55' E 001°45'4 4.5
2014-Oct-15 04:33N 39°51' E 001°42'4 3.8
2014-Oct-15 03:33N 39°48' E 001°40'6 6.4
2014-Oct-15 02:33N 39°43' E 001°34'9 8.7
2014-Oct-15 01:34N 39°36' E 001°28'1513.1
2014-Oct-15 00:25N 39°24' E 001°16'10512.9
2014-Oct-14 16:18N 38°01' W 000°05'1113.0
2014-Oct-14 15:29N 37°52' W 000°13'1213.0
2014-Oct-14 14:33N 37°43' W 000°22'1312.9
2014-Oct-14 13:32N 37°32' W 000°32'1313.0
2014-Oct-14 12:33N 37°24' W 000°44'23311.0
2014-Oct-13 15:22N 35°59' W 005°15'  
Track history (hours):
 
Tides and Currents Weather Stations Pressure Air Temp Water Temp Dewpoint Dewpoint Depression Visibility Wind Speed Wind Dir Waves Ship Positions

Tour Pomerol

Last reported at 2014-Oct-21 07:33 UTC. Time now 2014-Oct-23 09:33 UTC.
Position N 34°44' W 007°42'.

Length 120 m; draft 6.8 m.

Type: Tanker. MMSI: 563384980.

Date/timePositionNaut miles runAvg speedWind from/ knotsBaromVisibWave heightAir tempDewpointWater temp
2014-Oct-21 07:33N 34°44' W 007°42'9413.0
2014-Oct-21 00:21N 35°50' W 006°21'3813.0
2014-Oct-20 21:25N 35°58' W 005°35'1110.9
2014-Oct-20 20:27N 36°03' W 005°24'7 7.0
2014-Oct-20 19:27N 36°10' W 005°24'0 0.0
2014-Oct-20 12:12N 36°11' W 005°24'0 0.0
2014-Oct-20 07:33N 36°11' W 005°24'0 0.0
2014-Oct-20 06:30N 36°11' W 005°24'0 0.0
2014-Oct-20 05:33N 36°11' W 005°24'0 0.0
2014-Oct-20 02:33N 36°11' W 005°24'0 0.0
2014-Oct-20 01:22N 36°11' W 005°24'0 0.0
2014-Oct-20 00:31N 36°11' W 005°24'3 2.8
2014-Oct-19 23:33N 36°08' W 005°24'6 5.5
2014-Oct-19 22:33N 36°06' W 005°17'21512.4
2014-Oct-19 05:11N 37°14' W 001°03'813.4
2014-Oct-19 04:33N 37°20' W 000°54'1413.7
2014-Oct-19 03:33N 37°29' W 000°41'1313.5
2014-Oct-19 02:33N 37°38' W 000°30'1413.6
2014-Oct-19 01:33N 37°50' W 000°21'1312.9
2014-Oct-19 00:33N 38°01' W 000°12'1313.3
2014-Oct-18 23:33N 38°12' W 000°03'1313.4
2014-Oct-18 22:33N 38°23' E 000°06'1513.5
2014-Oct-18 21:28N 38°36' E 000°16'1213.2
2014-Oct-18 20:33N 38°46' E 000°25'1313.1
2014-Oct-18 19:32N 38°56' E 000°36'1313.2
2014-Oct-18 18:32N 39°07' E 000°46'1313.1
2014-Oct-18 17:33N 39°17' E 000°56'1313.1
2014-Oct-18 16:31N 39°28' E 001°07'1413.3
2014-Oct-18 15:29N 39°38' E 001°18'1313.4
2014-Oct-18 14:33N 39°48' E 001°28'1313.6
2014-Oct-18 13:33N 39°59' E 001°38'1313.4
2014-Oct-18 12:33N 40°10' E 001°49'1313.1
2014-Oct-18 11:33N 40°20' E 001°59'1313.0
2014-Oct-18 10:33N 40°30' E 002°10'1312.8
2014-Oct-18 09:30N 40°41' E 002°20'1514.7
2014-Oct-18 08:30N 40°53' E 002°32'1212.2
2014-Oct-18 07:33N 41°02' E 002°41'1413.5
2014-Oct-18 06:31N 41°13' E 002°52'1313.2
2014-Oct-18 05:33N 41°23' E 003°03'1313.3
2014-Oct-18 04:33N 41°34' E 003°14'1413.5
2014-Oct-18 03:33N 41°45' E 003°24'1413.7
2014-Oct-18 02:33N 41°55' E 003°36'2813.5
2014-Oct-18 00:28N 42°17' E 003°60'1413.7
2014-Oct-17 23:29N 42°28' E 004°12'1313.5
2014-Oct-17 22:30N 42°38' E 004°23'1515.7
2014-Oct-17 21:33N 42°49' E 004°36'1111.5
2014-Oct-17 20:33N 42°58' E 004°46'1413.6
2014-Oct-17 19:33N 43°09' E 004°57'1212.4
2014-Oct-17 18:33N 43°21' E 004°58'3 2.8
2014-Oct-17 17:31N 43°24' E 004°60'0 0.0
2014-Oct-17 16:31N 43°24' E 004°60'0 0.0
2014-Oct-17 15:31N 43°24' E 004°60'0 0.0
2014-Oct-17 14:31N 43°24' E 004°60'0 0.0
2014-Oct-17 13:31N 43°24' E 004°60'0 0.0
2014-Oct-17 12:31N 43°24' E 004°60'0 0.0
2014-Oct-17 11:31N 43°24' E 004°60'0 0.0
2014-Oct-17 10:31N 43°24' E 004°60'0 0.0
2014-Oct-17 09:31N 43°24' E 004°60'0 0.0
2014-Oct-17 08:31N 43°24' E 004°60'0 0.0
2014-Oct-17 07:31N 43°24' E 004°60'0 0.0
2014-Oct-17 06:31N 43°24' E 004°60'0 0.0
2014-Oct-17 05:31N 43°24' E 004°60'0 0.0
2014-Oct-17 04:31N 43°24' E 004°60'0 0.0
2014-Oct-17 03:31N 43°24' E 004°60'0 0.0
2014-Oct-17 02:33N 43°24' E 004°60'0 0.0
2014-Oct-17 01:33N 43°24' E 004°60'0 0.0
2014-Oct-17 00:34N 43°24' E 004°60'0 0.0
2014-Oct-16 23:33N 43°24' E 004°60'0 0.0
2014-Oct-16 22:33N 43°24' E 004°60'0 0.0
2014-Oct-16 21:33N 43°24' E 004°60'0 0.0
2014-Oct-16 20:33N 43°24' E 004°60'0 0.0
2014-Oct-16 19:33N 43°24' E 004°60'0 0.0
2014-Oct-16 18:34N 43°24' E 004°60'0 0.0
2014-Oct-16 17:33N 43°24' E 004°60'0 0.0
2014-Oct-16 16:33N 43°24' E 004°60'0 0.0
2014-Oct-16 15:33N 43°24' E 004°60'0 0.0
2014-Oct-16 14:33N 43°24' E 004°60'0 0.0
2014-Oct-16 13:33N 43°24' E 004°60'0 0.0
2014-Oct-16 12:33N 43°24' E 004°60'0 0.0
2014-Oct-16 11:33N 43°24' E 004°60'0 0.0
2014-Oct-16 10:33N 43°24' E 004°60'0 0.0
2014-Oct-16 09:33N 43°24' E 004°60'0 0.0
2014-Oct-16 08:33N 43°24' E 004°60'0 0.0
2014-Oct-16 07:33N 43°24' E 004°60'0 0.0
2014-Oct-16 06:33N 43°24' E 004°60'0 0.0
2014-Oct-16 05:33N 43°24' E 004°60'0 0.0
2014-Oct-16 04:33N 43°24' E 004°60'0 0.0
2014-Oct-16 03:33N 43°24' E 004°60'3 3.2
2014-Oct-16 02:33N 43°21' E 004°58'7812.1
2014-Oct-15 20:06N 42°13' E 004°06'2211.9
2014-Oct-15 18:18N 41°56' E 003°48'1213.2
2014-Oct-15 17:22N 41°46' E 003°38'1112.5
2014-Oct-15 16:29N 41°38' E 003°29'1312.8
2014-Oct-15 15:30N 41°28' E 003°19'1312.8
2014-Oct-15 14:31N 41°18' E 003°09'1212.8
2014-Oct-15 13:33N 41°08' E 002°59'1312.9
2014-Oct-15 12:33N 40°57' E 002°49'1313.1
2014-Oct-15 11:33N 40°47' E 002°39'9 9.2
2014-Oct-15 10:34N 40°40' E 002°31'1313.1
2014-Oct-15 09:33N 40°29' E 002°20'1313.1
2014-Oct-15 08:33N 40°19' E 002°10'1313.4
2014-Oct-15 07:34N 40°08' E 001°59'1413.5
2014-Oct-15 06:33N 39°57' E 001°49'3 3.4
2014-Oct-15 05:33N 39°55' E 001°45'4 4.5
2014-Oct-15 04:33N 39°51' E 001°42'4 3.8
2014-Oct-15 03:33N 39°48' E 001°40'6 6.4
2014-Oct-15 02:33N 39°43' E 001°34'9 8.7
2014-Oct-15 01:34N 39°36' E 001°28'1513.1
2014-Oct-15 00:25N 39°24' E 001°16'10512.9
2014-Oct-14 16:18N 38°01' W 000°05'1113.0
2014-Oct-14 15:29N 37°52' W 000°13'1213.0
2014-Oct-14 14:33N 37°43' W 000°22'1312.9
2014-Oct-14 13:32N 37°32' W 000°32'1313.0
2014-Oct-14 12:33N 37°24' W 000°44'23311.0
2014-Oct-13 15:22N 35°59' W 005°15'  

Dump ship's entire track history